Pavlo Boyko

Olheiro-Chefe - Oleksandriya
23 Out 2027
Sábado
Processo

Personalidade

Adaptabilidade (17) Ambição (6) Controvérsia (5) Lealdade (7) Pressão (19) Profissionalismo (9) Espírito Esportivo (2) Temperamento (18)

Perfil

Estilo de Treinamento Democrático
Licença Continental A
Determinação 11
Gestão de Pessoas 10
Motivação 8
Disciplina 10
Satisfação no Trabalho
100%
Fadiga
0%
Função Olheiro-Chefe
Salário 44.7K p/s
Contrato 14.03.2029

Desempenho

Comportamento Bom
Eficácia do Treinamento
33%
Desenvolvimento do Jogador
40%
Prevenção de Lesões
40%
Implementação Tática
25%

Eventos Recentes

Participou de uma reunião de recrutamento agora
Recomendou um alvo de transferência agora
Recomendou um alvo de transferência agora
Recomendou um alvo de transferência agora
Recomendou um alvo de transferência 7d atrás
Recomendou um alvo de transferência 7d atrás
Recomendou um alvo de transferência 7d atrás
Recomendou um alvo de transferência 7d atrás

Monitorando agora

156
Jogador Clube Status Habilidade Confiança Observado Última observação Último voto
Mykyta Dzen Probiy Ativo 83 / 86 30% 1 / 1m 25.08.2027 -
Ivan Denysov Prykarpattia Ativo 85 / 90 30% 1 / 1m 25.08.2027 -
Rumarn Burrell Queens Park Rangers Ativo 138 / 128 40% 1 09.08.2027 -
Marcus Browne AFC Wimbledon Ativo 111 / 91 40% 1 09.08.2027 -
Elijah Adebayo Luton Town Ativo 138 / 109 40% 1 09.08.2027 -
Yehor Demchenko Feniks Ativo 98 / 89 76% 1 02.08.2027 Aprovar
Oleksandr Chornomorets Feniks Ativo 99 / 104 76% 1 19.07.2027 Aprovar
Nazarii Vorobchak Livyi Bereh Perdido 90 / 96 76% 1 14.06.2027 -
Leonardo Mendicino Bari Ativo 109 / 113 40% 5 12.06.2027 -
Tommaso Cecotti Carpi Ativo 98 / 118 40% 5 12.06.2027 -
Mattia Puzone Siracusa Ativo 97 / 95 40% 2 12.06.2027 -
Joel McGregor Swindon Town Ativo 102 / 93 40% 2 11.06.2027 -
Rhys Chadwick Gillingham Ativo 98 / 128 40% 2 11.06.2027 -
Juan David Arizala Udinese Ativo 119 / 135 40% 2 10.06.2027 -
Davide Bartesaghi AC Milan Ativo 132 / 129 40% 2 10.06.2027 -
Maxwell Azafokpe Inter Allies Ativo 75 / 65 40% 3 09.06.2027 -
Jonathan De Irastorza Levante Ativo 117 / 146 40% 9 08.06.2027 -
Sascha Britschgi Catanzaro Ativo 123 / 146 40% 4 07.06.2027 -
Enzo Cardozo Virtus Entella Ativo 110 / 109 40% 4 06.06.2027 -
Riyad Idrissi Torino Ativo 119 / 113 40% 2 04.06.2027 -
Riley Owen Wycombe Wanderers Ativo 99 / 126 40% 12 03.06.2027 -
Daniel Vernattus Metalist Perdido 89 / 94 40% 4 03.06.2027 -
Martim Cunha Porto Ativo 93 / 90 40% 3 02.06.2027 -
Khama Dolly Black Aces Ativo 73 / 94 40% 2 02.06.2027 -
Sam Curtis Swindon Town Ativo 103 / 91 40% 3 01.06.2027 -
Edwin Asamoah Berekum Chelsea Ativo 81 / 95 40% 1 01.06.2027 -
Daniel Kelly Derby County Ativo 114 / 114 40% 2 31.05.2027 -
Pietro Reggiori Pro Patria Ativo 97 / 89 40% 5 31.05.2027 -
Lucas Jetten Cambuur Ativo 120 / 125 40% 2 30.05.2027 -
Tiago Freitas Benfica Ativo 119 / 127 40% 2 29.05.2027 -
Jofre Torrents Ajax Ativo 125 / 130 40% 6 28.05.2027 -
Gladson Sulemana Liberty Professionals Ativo 85 / 106 40% 2 27.05.2027 -
Miracle Williams Kryvbas Ativo 80 / 90 40% 5 26.05.2027 -
Christos Mouzakitis Hull City Ativo 122 / 153 40% 8 24.05.2027 -
Simone Kosijer Triestina Ativo 101 / 113 40% 3 24.05.2027 -
Mohammed Wakaso Hasaacas Ativo 96 / 105 40% 4 20.05.2027 -
Dylan Lawlor Cardiff City Ativo 108 / 103 40% 3 20.05.2027 -
Ronan Kpakio Brentford Ativo 113 / 146 40% 1 19.05.2027 -
Abraham Paintsil Hasaacas Ativo 85 / 89 40% 6 18.05.2027 -
Sergio Castillo Cortulua Ativo 100 / 100 40% 1 18.05.2027 -
Gonçalo Oliveira Benfica Ativo 103 / 101 40% 3 14.05.2027 -
Victor Ehibe Gazelle Garoua Ativo 93 / 100 40% 2 13.05.2027 -
Bakary Haïdara Hearts of Oak Ativo 102 / 122 40% 1 11.05.2027 -
Luca Lipani Frosinone Ativo 116 / 133 40% 1 09.05.2027 -
T-Jay Parfitt Cardiff City Ativo 94 / 96 40% 4 06.05.2027 -
Itumeleng Zungu Platinum Stars Ativo 64 / 74 40% 2 06.05.2027 -
Nazar Balaba Ahrobiznes Ativo 77 / 93 40% 2 03.05.2027 -
Riquelme Thompson-Jones Shrewsbury Town Ativo 108 / 115 40% 2 29.04.2027 -
Edmund Inusah WAFA Ativo 79 / 85 40% 2 24.04.2027 -
Surprise Manthosi Polokwane City Ativo 85 / 103 40% 4 15.04.2027 -
Riccardo De Zen Renate Ativo 100 / 109 40% 1 15.04.2027 -
Caleb Yirenkyi Coventry City Ativo 132 / 134 40% 3 08.04.2027 -
Edmund Nuhu BA All Stars Ativo 73 / 89 40% 1 30.03.2027 -
Leandro Martins Benfica Ativo 100 / 108 40% 1 26.03.2027 -
James Dornelly Peterborough United Ativo 95 / 103 40% 2 21.03.2027 -
Eivind Helland Bologna Ativo 120 / 133 40% 1 16.03.2027 -
Joseph Jones Kryvbas Ativo 99 / 87 40% 2 15.03.2027 -
Mandla Mokotjo SuperSport United Ativo 90 / 96 40% 1 11.03.2027 -
Maeson King Blackpool Ativo 99 / 98 40% 3 07.03.2027 -
Camilo Durán Bloemfontein Celtic Ativo 124 / 128 40% 3 09.02.2027 -
Lindon Emërllahu Polissia Ativo 119 / 124 40% 1 09.02.2027 -
Danylo Holub Bukovyna Ativo 93 / 97 69% 1 31.01.2027 Aprovar
Luther Ngcobo Ajax Cape Town Ativo 108 / 102 40% 1 26.01.2027 -
Caio Vidal FC Copenhagen Negociando 128 / 129 63% 1 25.01.2027 Aprovar
Tyrese Campbell Sheffield United Ativo 135 / 118 40% 1 25.01.2027 -
Lamine Cissé Peterborough United Ativo 111 / 143 40% 1 24.01.2027 -
Yousef Salech Cardiff City Ativo 131 / 135 40% 2 22.01.2027 -
Myroslav Trofymiuk Prykarpattia Ativo 87 / 68 40% 2 21.01.2027 -
Giorgi Kvernadze Frosinone Ativo 119 / 111 40% 1 21.01.2027 -
Adam Idah Swansea City Ativo 130 / 141 40% 1 21.01.2027 -
Jerome Karelse Golden Arrows Ativo 110 / 100 40% 3 20.01.2027 -
Aidomo Emakhu Oxford United Ativo 121 / 103 40% 1 20.01.2027 -
Ali Youssef Apollon Ativo 119 / 112 40% 1 19.01.2027 -
Jovon Makama Norwich City Ativo 135 / 110 40% 1 19.01.2027 -
Denys Rezepov Nyva Ativo 98 / 93 40% 5 18.01.2027 -
Jay Stansfield Birmingham Ativo 128 / 140 40% 1 17.01.2027 -
Ivan Varfolomeev Lincoln City Ativo 106 / 127 40% 1 16.01.2027 -
Roman Didyk LNZ Ativo 104 / 98 40% 1 16.01.2027 -
Tyrell Malacia Derby County Ativo 137 / 131 40% 1 16.01.2027 -
Robert Mizo Aswan Ativo 104 / 104 40% 1 16.01.2027 -
Jeffrey Adjei Wa All Stars Ativo 87 / 83 40% 1 16.01.2027 -
Aune Heggebø West Bromwich Albion Ativo 132 / 111 40% 1 14.01.2027 -
Mykola Haiduchyk Polissia Ativo 114 / 97 40% 3 12.01.2027 -
Bohdan Mohylnyi Inhulets Ativo 98 / 73 40% 3 12.01.2027 -
Matej Trusa DAC Dunajska Streda Ativo 119 / 121 40% 2 12.01.2027 -
Vladimir Nikolov Slavia Sofia Ativo 101 / 108 40% 1 11.01.2027 -
Ilir Krasniqi Polissia Ativo 114 / 114 40% 1 10.01.2027 -
Pastor CSKA Sofia Ativo 117 / 105 40% 1 10.01.2027 -
Álex Valle Como Ativo 139 / 137 40% 1 10.01.2027 -
Wesley Pomba Kolos Ativo 108 / 124 40% 2 09.01.2027 -
Benjamin Tsivanyo Aduana Stars Ativo 75 / 88 40% 1 07.01.2027 -
Maksym Hirnyi Probiy Ativo 81 / 81 40% 1 07.01.2027 -
Rodion Plaksa Kudrivka Ativo 97 / 104 40% 1 07.01.2027 -
Solly Khunyedi Bloemfontein Celtic Ativo 95 / 116 40% 1 04.01.2027 -
Ammar Ramadan DAC Dunajska Streda Ativo 132 / 131 40% 2 03.01.2027 -
Kostiantyn Bychek Kudrivka Ativo 93 / 89 40% 1 03.01.2027 -
Maksym Voitikhovskyi Bukovyna Ativo 106 / 83 40% 1 29.12.2026 -
Radek Šiler Podbrezova Ativo 110 / 117 40% 1 27.12.2026 -
Daniel Awuni Aduana Stars Ativo 96 / 111 40% 1 23.12.2026 -
Lander Astiazarán Real Sociedad Ativo 107 / 118 40% 1 22.12.2026 -
Oumar Camara Vitoria Guimaraes Ativo 122 / 122 40% 1 22.12.2026 -
Carlos Paraco Metalist Ativo 106 / 107 40% 3 19.12.2026 -
Danylo Honcharuk Probiy Ativo 92 / 106 40% 1 19.12.2026 -
Etiosa Ighodaro Kaizer Chiefs Ativo 125 / 103 40% 2 18.12.2026 -
Andrii Riznyk Ahrobiznes Ativo 86 / 73 40% 1 18.12.2026 -
Oleksandr Kamenskyi Kryvbas Ativo 89 / 102 40% 2 17.12.2026 -
Andrii Savitskyi Metalurh Zaporizhzhia Ativo 71 / 74 40% 1 14.12.2026 -
Carlos Rojas Epicentr Ativo 104 / 93 40% 1 13.12.2026 -
Andrija Janjić Zorya Ativo 112 / 120 40% 1 12.12.2026 -
Mihály Kata MTK Budapest Ativo 112 / 119 40% 1 12.12.2026 -
Wallace Yan Flamengo Ativo 124 / 135 40% 1 09.12.2026 -
Sidiki Chérif Coventry City Ativo 128 / 122 40% 1 09.12.2026 -
Reda Khadra Qarabag Ativo 130 / 130 40% 2 06.12.2026 -
Oleksandr Yatsyk Metalist Ativo 108 / 108 40% 1 06.12.2026 -
Oleksiy Kashchuk Qarabag Ativo 111 / 115 40% 1 06.12.2026 -
João Simões Sporting CP Ativo 136 / 126 40% 3 04.12.2026 -
Denys Pidhurskyi Rukh Ativo 102 / 103 40% 1 03.12.2026 -
Borys Krushynskyi Polissia Ativo 118 / 119 40% 1 03.12.2026 -
Vadym Sydun Epicentr Ativo 92 / 92 40% 1 01.12.2026 -
Monty Batlhabane Polokwane City Ativo 79 / 92 40% 2 29.11.2026 -
Gorka Gorosabel Real Sociedad Ativo 107 / 120 40% 1 29.11.2026 -
Bradley Zwane SuperSport United Ativo 100 / 86 40% 3 28.11.2026 -
Mfundo Vilakazi Kaizer Chiefs Ativo 103 / 106 40% 4 27.11.2026 -
Dino Kojić Olimpija Ljubljana Ativo 115 / 105 40% 1 26.11.2026 -
Petar Stanić Ludogorets Ativo 127 / 137 40% 1 25.11.2026 -
Mduduzi Shabalala Kaizer Chiefs Ativo 110 / 134 40% 1 25.11.2026 -
Reuell Walters Luton Town Ativo 112 / 129 40% 2 23.11.2026 -
Bassem El Hadary Masr El Makasa Ativo 117 / 106 40% 2 22.11.2026 -
Dmytro Hodia Veres Ativo 82 / 84 40% 1 22.11.2026 -
Ethan Mbappé LOSC Lille Ativo 145 / 138 40% 4 20.11.2026 -
Dani Díaz Real Sociedad Ativo 110 / 121 40% 1 20.11.2026 -
Roman Kovaliuk Feniks Ativo 82 / 86 40% 1 20.11.2026 -
Léo Pereira CSKA Sofia Ativo 124 / 117 40% 1 18.11.2026 -
Maksym Chekh Obolon Ativo 106 / 90 40% 1 18.11.2026 -
Artem Slesar Zorya Ativo 116 / 113 40% 8 16.11.2026 -
Nino Marcelli Slovan Bratislava Ativo 112 / 126 40% 3 16.11.2026 -
Christoph Wober Mattersburg Ativo 108 / 95 40% 1 13.11.2026 -
Diyar Shamuzov Doxa Ativo 71 / 90 40% 1 11.11.2026 -
Yevhen Bespalko Prykarpattia Ativo 81 / 89 40% 1 06.11.2026 -
Gonzalo Gamarra Floriana Ativo 115 / 88 40% 1 06.11.2026 -
Furkan Demir Rapid Wien Ativo 121 / 140 40% 1 03.11.2026 -
Vladyslav Moroz Epicentr Ativo 103 / 85 40% 1 02.11.2026 -
Marc Pubill Atlético Madrid Ativo 132 / 139 40% 1 02.11.2026 -
Oleksandr Drambaiev LNZ Ativo 117 / 98 40% 1 02.11.2026 -
Tomás Aranda Boca Juniors Ativo 109 / 122 40% 2 30.10.2026 -
Martin Wober Mattersburg Ativo 106 / 126 40% 1 29.10.2026 -
Vitaliy Mykhayliv Nyva Ativo 82 / 99 40% 2 28.10.2026 -
Csanád Vilmos Dénes Debrecen Ativo 97 / 121 40% 1 28.10.2026 -
Ryan Oné Sheffield United Ativo 113 / 96 40% 1 21.10.2026 -
Bohdan Budko AZ Ativo 100 / 135 40% 1 13.10.2026 -
Jay Robinson Southampton Ativo 128 / 149 40% 1 13.10.2026 -
Bautista Carboni Defensores Unidos Ativo 97 / 125 40% 1 09.10.2026 -
Daniel Bassi Lillestrom Ativo 133 / 124 40% 1 07.10.2026 -
Vavá Guerreiro UCSA Ativo 100 / 103 65% 1 31.08.2026 Aprovar
Paulo Díaz Atlanta United FC Ativo 140 / 123 40% 1 04.08.2026 -
Oleksandr Klymets Epicentr Ativo 99 / 106 40% 1 04.08.2026 -